createdAt,value
2018-04-10T00:00:03.130Z,14.13
2018-04-10T00:02:30.587Z,17.43
2018-04-10T00:04:58.059Z,15.00
2018-04-10T00:07:25.513Z,18.00
2018-04-10T00:09:52.991Z,14.30
2018-04-10T00:12:20.479Z,15.90
2018-04-10T00:14:47.926Z,15.10
2018-04-10T00:17:15.397Z,17.40
2018-04-10T00:19:42.863Z,19.10
2018-04-10T00:22:11.154Z,15.47
2018-04-10T00:24:38.645Z,18.90
2018-04-10T00:27:06.107Z,18.97
2018-04-10T00:29:33.562Z,15.57
2018-04-10T00:32:01.035Z,15.43
2018-04-10T00:34:28.496Z,22.30
2018-04-10T00:36:55.969Z,17.43
2018-04-10T00:39:23.427Z,14.70
2018-04-10T00:41:51.861Z,16.33
2018-04-10T00:44:19.342Z,17.77
2018-04-10T00:46:46.790Z,16.87
2018-04-10T00:49:14.253Z,16.37
2018-04-10T00:51:41.732Z,15.27
2018-04-10T00:54:09.974Z,18.90
2018-04-10T00:56:37.426Z,16.57
2018-04-10T00:59:05.666Z,18.33
2018-04-10T01:01:33.118Z,17.40
2018-04-10T01:04:00.598Z,16.57
2018-04-10T01:06:28.038Z,20.27
2018-04-10T01:08:55.508Z,16.40
2018-04-10T01:11:22.945Z,16.73
2018-04-10T01:13:51.188Z,18.33
2018-04-10T01:16:18.673Z,16.93
2018-04-10T01:18:46.186Z,15.20
2018-04-10T01:21:13.630Z,17.90
2018-04-10T01:23:41.105Z,22.23
2018-04-10T01:26:08.543Z,20.20
2018-04-10T01:28:36.076Z,18.13
2018-04-10T01:31:03.531Z,15.60
2018-04-10T01:33:31.039Z,16.70
2018-04-10T01:35:58.480Z,16.63
2018-04-10T01:38:25.983Z,15.20
2018-04-10T01:40:54.189Z,20.63
2018-04-10T01:43:21.646Z,16.10
2018-04-10T01:45:49.102Z,17.63
2018-04-10T01:48:16.597Z,16.20
2018-04-10T01:50:44.078Z,16.50
2018-04-10T01:53:12.353Z,16.63
2018-04-10T01:55:40.601Z,15.63
2018-04-10T01:58:08.043Z,17.27
2018-04-10T02:00:35.548Z,14.57
2018-04-10T02:03:03.762Z,15.20
2018-04-10T02:05:31.225Z,17.27
2018-04-10T02:07:58.715Z,17.87
2018-04-10T02:10:26.172Z,17.40
2018-04-10T02:12:54.387Z,15.00
2018-04-10T02:15:21.851Z,18.23
2018-04-10T02:17:49.302Z,14.97
2018-04-10T02:20:16.866Z,17.27
2018-04-10T02:22:44.316Z,16.43
2018-04-10T02:25:11.778Z,18.83
2018-04-10T02:27:39.231Z,15.70
2018-04-10T02:30:06.676Z,13.93
2018-04-10T02:32:34.181Z,16.07
2018-04-10T02:35:01.630Z,14.47
2018-04-10T02:37:29.089Z,17.47
2018-04-10T02:39:56.558Z,14.10
2018-04-10T02:42:24.012Z,14.67
2018-04-10T02:44:51.465Z,15.00
2018-04-10T02:47:18.983Z,14.13
2018-04-10T02:49:46.440Z,15.73
2018-04-10T02:52:13.882Z,15.50
2018-04-10T02:54:41.338Z,16.50
2018-04-10T02:57:08.802Z,13.93
2018-04-10T02:59:36.270Z,16.30
2018-04-10T03:02:03.733Z,12.50
2018-04-10T03:04:31.313Z,15.07
2018-04-10T03:06:58.773Z,16.50
2018-04-10T03:09:26.230Z,14.53
2018-04-10T03:11:53.726Z,13.63
2018-04-10T03:14:21.971Z,16.23
2018-04-10T03:16:49.442Z,13.93
2018-04-10T03:19:17.676Z,13.97
2018-04-10T03:21:45.129Z,17.73
2018-04-10T03:24:12.614Z,15.17
2018-04-10T03:26:40.065Z,12.90
2018-04-10T03:29:07.550Z,19.57
2018-04-10T03:31:35.791Z,15.37
2018-04-10T03:34:03.296Z,15.13
2018-04-10T03:36:31.502Z,15.40
2018-04-10T03:38:58.975Z,15.43
2018-04-10T03:41:26.426Z,13.67
2018-04-10T03:43:53.886Z,17.33
2018-04-10T03:46:21.354Z,12.47
2018-04-10T03:48:48.847Z,14.57
2018-04-10T03:51:16.323Z,12.20
2018-04-10T03:53:43.825Z,15.77
2018-04-10T03:56:11.339Z,18.37
2018-04-10T03:58:38.807Z,16.50
2018-04-10T04:01:06.296Z,16.33
2018-04-10T04:03:33.780Z,16.40
2018-04-10T04:06:02.018Z,13.97
2018-04-10T04:08:29.492Z,15.73
2018-04-10T04:10:56.974Z,17.00
2018-04-10T04:13:24.437Z,14.50
2018-04-10T04:15:51.911Z,17.90
2018-04-10T04:18:31.298Z,16.97
2018-04-10T04:21:11.566Z,15.90
2018-04-10T04:23:39.022Z,14.10
2018-04-10T04:26:07.286Z,18.53
2018-04-10T04:28:34.747Z,15.97
2018-04-10T04:31:02.995Z,16.30
2018-04-10T04:33:30.449Z,17.60
2018-04-10T04:35:57.928Z,17.00
2018-04-10T04:38:25.376Z,20.33
2018-04-10T04:40:52.875Z,16.00
2018-04-10T04:43:20.357Z,16.90
2018-04-10T04:45:47.891Z,18.53
2018-04-10T04:48:15.346Z,17.97
2018-04-10T04:50:42.797Z,19.80
2018-04-10T04:53:10.357Z,19.20
2018-04-10T04:55:38.602Z,14.97
2018-04-10T04:58:06.070Z,17.80
2018-04-10T05:00:34.307Z,27.07
2018-04-10T05:03:01.792Z,19.20
2018-04-10T05:05:29.993Z,18.30
2018-04-10T05:07:57.489Z,18.23
2018-04-10T05:10:25.711Z,20.80
2018-04-10T05:12:53.967Z,17.90
2018-04-10T05:15:22.194Z,21.63
2018-04-10T05:17:49.684Z,22.50
2018-04-10T05:20:17.138Z,16.77
2018-04-10T05:22:44.638Z,19.80
2018-04-10T05:25:12.947Z,18.83
2018-04-10T05:27:40.426Z,20.50
2018-04-10T05:30:07.875Z,22.23
2018-04-10T05:32:35.351Z,17.20
2018-04-10T05:35:02.825Z,14.80
2018-04-10T05:37:30.368Z,16.87
2018-04-10T05:39:57.841Z,18.20
2018-04-10T05:42:26.080Z,17.20
2018-04-10T05:44:53.598Z,20.37
2018-04-10T05:47:21.830Z,18.67
2018-04-10T05:49:49.313Z,23.00
2018-04-10T05:52:17.545Z,19.33
2018-04-10T05:54:45.109Z,18.10
2018-04-10T05:57:12.578Z,25.90
2018-04-10T05:59:40.071Z,26.40
2018-04-10T06:02:07.555Z,19.70
2018-04-10T06:04:35.297Z,20.60
2018-04-10T06:07:02.743Z,19.80
2018-04-10T06:09:30.248Z,19.10
2018-04-10T06:11:57.698Z,21.50
2018-04-10T06:14:25.184Z,20.83
2018-04-10T06:16:52.670Z,20.80
2018-04-10T06:19:20.143Z,21.70
2018-04-10T06:21:47.650Z,21.07
2018-04-10T06:24:15.189Z,18.60
2018-04-10T06:26:42.654Z,20.43
2018-04-10T06:29:10.102Z,19.00
2018-04-10T06:31:37.606Z,18.43
2018-04-10T06:34:05.822Z,19.70
2018-04-10T06:36:33.303Z,22.43
2018-04-10T06:39:00.751Z,18.07
2018-04-10T06:41:28.214Z,18.13
2018-04-10T06:43:55.691Z,20.67
2018-04-10T06:46:23.160Z,19.53
2018-04-10T06:48:50.621Z,19.57
2018-04-10T06:51:18.107Z,21.40
2018-04-10T06:53:45.567Z,23.47
2018-04-10T06:56:16.415Z,24.30
2018-04-10T06:58:47.027Z,20.30
2018-04-10T07:01:14.497Z,21.17
2018-04-10T07:03:42.732Z,27.33
2018-04-10T07:06:10.176Z,22.33
2018-04-10T07:08:37.682Z,19.87
2018-04-10T07:11:05.140Z,23.57
2018-04-10T07:13:32.595Z,22.43
2018-04-10T07:16:00.049Z,23.00
2018-04-10T07:18:27.510Z,24.97
2018-04-10T07:20:55.009Z,25.30
2018-04-10T07:23:23.251Z,22.33
2018-04-10T07:25:50.713Z,23.13
2018-04-10T07:28:18.203Z,30.23
2018-04-10T07:30:46.427Z,25.17
2018-04-10T07:33:13.911Z,22.53
2018-04-10T07:35:41.372Z,20.43
2018-04-10T07:38:08.861Z,21.23
2018-04-10T07:40:36.347Z,25.63
2018-04-10T07:43:03.808Z,22.40
2018-04-10T07:45:31.275Z,23.00
2018-04-10T07:47:59.548Z,20.63
2018-04-10T07:50:27.023Z,23.83
2018-04-10T07:52:54.487Z,21.40
2018-04-10T07:55:22.798Z,21.17
2018-04-10T07:57:50.273Z,25.33
2018-04-10T08:00:17.834Z,19.03
2018-04-10T08:02:45.277Z,19.77
2018-04-10T08:05:12.984Z,22.30
2018-04-10T08:07:40.434Z,22.40
2018-04-10T08:10:07.919Z,19.50
2018-04-10T08:12:36.155Z,18.57
2018-04-10T08:15:03.628Z,19.20
2018-04-10T08:17:31.091Z,21.30
2018-04-10T08:19:58.573Z,23.80
2018-04-10T08:22:26.815Z,23.23
2018-04-10T08:24:54.342Z,24.40
2018-04-10T08:27:21.796Z,18.87
2018-04-10T08:29:49.309Z,20.73
2018-04-10T08:32:16.810Z,19.90
2018-04-10T08:34:44.261Z,20.17
2018-04-10T08:37:11.731Z,20.50
2018-04-10T08:39:39.210Z,19.63
2018-04-10T08:42:06.669Z,20.63
2018-04-10T08:44:34.144Z,23.27
2018-04-10T08:47:01.606Z,19.60
2018-04-10T08:49:29.080Z,24.20
2018-04-10T08:51:56.506Z,20.67
2018-04-10T08:54:23.962Z,19.90
2018-04-10T08:56:51.441Z,24.77
2018-04-10T08:59:18.892Z,20.50
2018-04-10T09:01:47.144Z,19.60
2018-04-10T09:04:14.593Z,19.97
2018-04-10T09:06:42.059Z,19.67
2018-04-10T09:09:09.834Z,21.50
2018-04-10T09:11:37.290Z,21.73
2018-04-10T09:14:05.543Z,22.03
2018-04-10T09:16:33.073Z,24.63
2018-04-10T09:19:00.527Z,21.30
2018-04-10T09:21:27.984Z,22.03
2018-04-10T09:23:55.459Z,21.90
2018-04-10T09:26:22.923Z,17.70
2018-04-10T09:28:51.340Z,20.23
2018-04-10T09:31:18.822Z,21.83
2018-04-10T09:33:46.295Z,27.10
2018-04-10T09:36:13.745Z,25.87
2018-04-10T09:38:41.248Z,21.43
2018-04-10T09:41:08.687Z,26.47
2018-04-10T09:43:36.202Z,20.10
2018-04-10T09:46:03.627Z,21.73
2018-04-10T09:48:31.876Z,24.60
2018-04-10T09:50:59.346Z,21.83
2018-04-10T09:53:26.807Z,22.20
2018-04-10T09:55:54.357Z,20.27
2018-04-10T09:58:21.830Z,24.47
2018-04-10T10:00:50.085Z,21.50
2018-04-10T10:03:17.578Z,20.33
2018-04-10T10:05:45.848Z,22.30
2018-04-10T10:08:14.065Z,18.40
2018-04-10T10:10:41.551Z,16.53
2018-04-10T10:13:09.010Z,13.80
2018-04-10T10:15:36.495Z,16.20
2018-04-10T10:18:04.707Z,15.40
2018-04-10T10:20:32.251Z,16.43
2018-04-10T10:22:59.691Z,13.47
2018-04-10T10:25:27.167Z,12.57
2018-04-10T10:27:54.621Z,13.03
2018-04-10T10:30:22.089Z,16.27
2018-04-10T10:32:49.584Z,11.07
2018-04-10T10:35:17.074Z,11.80
2018-04-10T10:37:45.297Z,11.33
2018-04-10T10:40:12.773Z,11.60
2018-04-10T10:42:40.234Z,15.43
2018-04-10T10:45:07.696Z,13.33
2018-04-10T10:47:35.933Z,9.37
2018-04-10T10:50:03.387Z,8.60
2018-04-10T10:52:31.638Z,4.87
2018-04-10T10:54:59.073Z,4.70
2018-04-10T10:57:27.291Z,5.53
2018-04-10T10:59:54.772Z,3.60
2018-04-10T11:02:22.225Z,4.33
2018-04-10T11:04:49.680Z,2.60
2018-04-10T11:07:17.156Z,2.57
2018-04-10T11:09:45.378Z,3.03
2018-04-10T11:12:12.880Z,6.73
2018-04-10T11:14:40.335Z,4.10
2018-04-10T11:17:08.585Z,2.40
2018-04-10T11:19:36.791Z,3.03
2018-04-10T11:22:04.303Z,1.73
2018-04-10T11:24:31.773Z,2.10
2018-04-10T11:26:59.232Z,3.00
2018-04-10T11:29:31.548Z,3.60
2018-04-10T11:31:59.786Z,2.20
2018-04-10T11:34:27.236Z,6.57
2018-04-10T11:36:54.693Z,4.10
2018-04-10T11:39:22.164Z,4.23
2018-04-10T11:41:49.623Z,2.13
2018-04-10T11:44:17.074Z,3.57
2018-04-10T11:46:44.612Z,4.97
2018-04-10T11:49:12.086Z,3.00
2018-04-10T11:51:39.530Z,5.30
2018-04-10T11:54:07.789Z,2.00
2018-04-10T11:56:35.295Z,1.97
2018-04-10T11:59:02.758Z,2.60
2018-04-10T12:01:30.230Z,2.73
2018-04-10T12:03:57.874Z,2.67
2018-04-10T12:06:26.114Z,3.60
2018-04-10T12:08:53.631Z,3.63
2018-04-10T12:11:21.084Z,1.90
2018-04-10T12:13:48.559Z,5.03
2018-04-10T12:16:16.036Z,2.80
2018-04-10T12:18:43.515Z,2.07
2018-04-10T12:21:11.050Z,5.93
2018-04-10T12:23:38.514Z,2.93
2018-04-10T12:26:06.000Z,3.07
2018-04-10T12:28:34.228Z,2.47
2018-04-10T12:31:01.685Z,5.57
2018-04-10T12:33:29.160Z,2.60
2018-04-10T12:35:56.692Z,2.90
2018-04-10T12:38:24.163Z,1.77
2018-04-10T12:40:51.661Z,4.40
2018-04-10T12:43:19.884Z,2.20
2018-04-10T12:45:47.435Z,3.57
2018-04-10T12:48:14.890Z,2.30
2018-04-10T12:50:42.349Z,4.63
2018-04-10T12:53:09.813Z,2.30
2018-04-10T12:55:37.314Z,3.10
2018-04-10T12:58:05.590Z,3.50
2018-04-10T13:00:33.900Z,2.63
2018-04-10T13:03:01.414Z,4.93
2018-04-10T13:05:28.872Z,3.63
2018-04-10T13:07:57.115Z,8.80
2018-04-10T13:10:24.570Z,3.50
2018-04-10T13:12:52.036Z,2.30
2018-04-10T13:15:19.519Z,2.23
2018-04-10T13:17:46.986Z,2.70
2018-04-10T13:20:14.446Z,3.10
2018-04-10T13:22:42.672Z,2.40
2018-04-10T13:25:10.142Z,2.77
2018-04-10T13:27:37.614Z,2.90
2018-04-10T13:30:05.854Z,3.63
2018-04-10T13:32:33.347Z,5.33
2018-04-10T13:35:00.884Z,7.33
2018-04-10T13:37:28.345Z,3.00
2018-04-10T13:39:55.871Z,6.77
2018-04-10T13:42:23.367Z,5.40
2018-04-10T13:44:50.873Z,2.63
2018-04-10T13:47:18.486Z,10.27
2018-04-10T13:49:45.940Z,6.67
2018-04-10T13:52:13.366Z,3.80
2018-04-10T13:54:40.912Z,6.53
2018-04-10T13:57:08.371Z,5.10
2018-04-10T13:59:35.868Z,3.50
2018-04-10T14:02:03.280Z,11.27
2018-04-10T14:04:30.796Z,8.53
2018-04-10T14:06:58.221Z,5.53
2018-04-10T14:09:25.729Z,5.37
2018-04-10T14:11:53.977Z,4.40
2018-04-10T14:14:21.509Z,3.70
2018-04-10T14:16:49.003Z,4.97
2018-04-10T14:19:17.212Z,4.37
2018-04-10T14:21:44.686Z,4.13
2018-04-10T14:24:12.167Z,3.83
2018-04-10T14:26:39.631Z,3.57
2018-04-10T14:29:07.081Z,4.97
2018-04-10T14:31:34.589Z,4.33
2018-04-10T14:34:02.787Z,4.60
2018-04-10T14:36:30.264Z,3.20
2018-04-10T14:38:57.718Z,3.23
2018-04-10T14:41:25.166Z,3.23
2018-04-10T14:43:52.632Z,7.57
2018-04-10T14:46:20.101Z,4.03
2018-04-10T14:48:47.554Z,18.13
2018-04-10T14:51:15.012Z,6.10
2018-04-10T14:53:42.481Z,3.93
2018-04-10T14:56:09.939Z,4.33
2018-04-10T14:58:37.423Z,6.10
2018-04-10T15:01:04.875Z,3.70
2018-04-10T15:03:33.104Z,5.87
2018-04-10T15:06:00.600Z,4.20
2018-04-10T15:08:28.023Z,4.80
2018-04-10T15:10:55.463Z,4.73
2018-04-10T15:13:22.927Z,4.57
2018-04-10T15:15:50.377Z,6.17
2018-04-10T15:18:17.864Z,5.87
2018-04-10T15:20:46.113Z,4.13
2018-04-10T15:23:14.085Z,5.07
2018-04-10T15:25:41.604Z,7.07
2018-04-10T15:28:09.084Z,4.53
2018-04-10T15:30:36.524Z,3.50
2018-04-10T15:33:03.981Z,4.47
2018-04-10T15:35:31.431Z,4.70
2018-04-10T15:37:59.071Z,7.50
2018-04-10T15:40:27.328Z,4.97
2018-04-10T15:42:54.805Z,5.03
2018-04-10T15:45:22.303Z,5.27
2018-04-10T15:47:49.760Z,7.83
2018-04-10T15:50:17.327Z,5.37
2018-04-10T15:52:44.792Z,3.23
2018-04-10T15:55:13.043Z,6.43
2018-04-10T15:57:40.494Z,3.37
2018-04-10T16:00:08.725Z,4.07
2018-04-10T16:02:36.215Z,4.33
2018-04-10T16:05:03.685Z,10.83
2018-04-10T16:07:31.236Z,6.33
2018-04-10T16:09:58.692Z,5.00
2018-04-10T16:12:26.165Z,5.07
2018-04-10T16:14:53.637Z,4.00
2018-04-10T16:17:21.125Z,4.63
2018-04-10T16:19:48.653Z,5.20
2018-04-10T16:22:16.094Z,2.53
2018-04-10T16:24:43.642Z,4.10
2018-04-10T16:27:11.113Z,3.30
2018-04-10T16:29:38.624Z,4.03
2018-04-10T16:32:06.123Z,3.03
2018-04-10T16:34:33.550Z,6.23
2018-04-10T16:37:01.020Z,2.73
2018-04-10T16:39:28.464Z,6.80
2018-04-10T16:41:55.942Z,5.67
2018-04-10T16:44:23.395Z,4.47
2018-04-10T16:46:50.904Z,3.97
2018-04-10T16:49:19.121Z,3.30
2018-04-10T16:51:46.641Z,5.43
2018-04-10T16:54:14.888Z,4.53
2018-04-10T16:56:42.325Z,2.67
2018-04-10T16:59:09.781Z,2.40
2018-04-10T17:01:38.037Z,3.43
2018-04-10T17:04:05.490Z,4.93
2018-04-10T17:06:32.963Z,3.23
2018-04-10T17:09:00.530Z,5.37
2018-04-10T17:11:27.997Z,13.63
2018-04-10T17:13:55.589Z,5.93
2018-04-10T17:16:23.847Z,3.90
2018-04-10T17:18:51.336Z,3.67
2018-04-10T17:21:18.792Z,5.13
2018-04-10T17:23:46.258Z,6.87
2018-04-10T17:26:13.761Z,6.67
2018-04-10T17:28:41.240Z,3.70
2018-04-10T17:31:09.530Z,10.00
2018-04-10T17:33:37.051Z,5.03
2018-04-10T17:36:04.688Z,5.33
2018-04-10T17:38:32.163Z,9.20
2018-04-10T17:40:59.617Z,4.20
2018-04-10T17:43:27.102Z,6.50
2018-04-10T17:45:55.340Z,5.97
2018-04-10T17:48:23.960Z,5.07
2018-04-10T17:50:51.415Z,3.57
2018-04-10T17:53:19.649Z,5.60
2018-04-10T17:55:47.174Z,8.20
2018-04-10T17:58:14.647Z,9.17
2018-04-10T18:00:42.162Z,4.80
2018-04-10T18:03:10.431Z,8.33
2018-04-10T18:05:37.899Z,9.37
2018-04-10T18:08:06.137Z,7.23
2018-04-10T18:10:33.637Z,4.90
2018-04-10T18:13:01.847Z,4.60
2018-04-10T18:15:29.362Z,3.90
2018-04-10T18:17:57.612Z,6.00
2018-04-10T18:20:25.102Z,4.33
2018-04-10T18:22:52.589Z,2.43
2018-04-10T18:25:20.095Z,3.00
2018-04-10T18:27:47.540Z,3.63
2018-04-10T18:30:15.101Z,4.07
2018-04-10T18:32:42.648Z,3.27
2018-04-10T18:35:10.130Z,3.43
2018-04-10T18:37:38.361Z,4.77
2018-04-10T18:40:05.807Z,9.33
2018-04-10T18:42:33.393Z,2.67
2018-04-10T18:45:01.056Z,3.23
2018-04-10T18:47:28.587Z,4.27
2018-04-10T18:49:56.868Z,5.03
2018-04-10T18:52:24.630Z,4.23
2018-04-10T18:54:52.534Z,2.17
2018-04-10T18:57:20.882Z,1.43
2018-04-10T18:59:48.868Z,1.77
2018-04-10T19:02:16.400Z,3.67
2018-04-10T19:04:43.910Z,3.63
2018-04-10T19:07:11.416Z,5.67
2018-04-10T19:09:38.963Z,5.50
2018-04-10T19:12:06.531Z,2.50
2018-04-10T19:14:34.089Z,2.77
2018-04-10T19:17:01.609Z,4.83
2018-04-10T19:19:29.845Z,2.27
2018-04-10T19:21:57.299Z,4.37
2018-04-10T19:24:24.770Z,5.80
2018-04-10T19:26:52.231Z,1.27
2018-04-10T19:29:19.743Z,2.73
2018-04-10T19:31:47.184Z,4.37
2018-04-10T19:34:14.663Z,5.20
2018-04-10T19:36:42.152Z,2.10
2018-04-10T19:39:09.679Z,2.73
2018-04-10T19:41:37.177Z,2.97
2018-04-10T19:44:04.668Z,1.43
2018-04-10T19:46:32.183Z,1.97
2018-04-10T19:48:59.799Z,5.00
2018-04-10T19:51:27.260Z,1.50
2018-04-10T19:53:54.719Z,2.40
2018-04-10T19:56:22.210Z,3.93
2018-04-10T19:58:49.717Z,2.23
2018-04-10T20:01:17.218Z,3.77
2018-04-10T20:03:44.704Z,2.03
2018-04-10T20:06:13.004Z,2.20
2018-04-10T20:08:40.566Z,4.97
2018-04-10T20:11:08.236Z,2.43
2018-04-10T20:13:35.688Z,1.00
2018-04-10T20:16:03.859Z,4.20
2018-04-10T20:18:31.371Z,2.85
2018-04-10T20:20:58.870Z,1.60
2018-04-10T20:23:26.384Z,1.70
2018-04-10T20:25:53.954Z,4.17
2018-04-10T20:28:22.281Z,1.40
2018-04-10T20:30:50.626Z,1.43
2018-04-10T20:33:18.148Z,2.43
2018-04-10T20:35:45.724Z,1.33
2018-04-10T20:38:13.201Z,1.50
2018-04-10T20:40:40.745Z,1.93
2018-04-10T20:43:08.315Z,2.10
2018-04-10T20:45:35.837Z,1.20
2018-04-10T20:48:03.332Z,2.60
2018-04-10T20:50:30.830Z,1.60
2018-04-10T20:52:58.363Z,4.40
2018-04-10T20:55:25.893Z,2.20
2018-04-10T20:57:54.173Z,1.60
2018-04-10T21:00:22.415Z,2.27
2018-04-10T21:02:49.897Z,1.70
2018-04-10T21:05:19.558Z,2.07
2018-04-10T21:07:47.064Z,1.73
2018-04-10T21:10:15.339Z,3.20
2018-04-10T21:12:42.916Z,4.10
2018-04-10T21:15:10.392Z,1.80
2018-04-10T21:17:37.861Z,0.98
2018-04-10T21:20:05.364Z,1.70
2018-04-10T21:22:32.822Z,1.50
2018-04-10T21:25:00.321Z,2.50
2018-04-10T21:27:27.804Z,2.12
2018-04-10T21:29:55.266Z,2.87
2018-04-10T21:32:22.749Z,1.57
2018-04-10T21:34:51.007Z,2.70
2018-04-10T21:37:18.484Z,1.25
2018-04-10T21:39:46.829Z,1.55
2018-04-10T21:42:15.229Z,2.17
2018-04-10T21:44:43.483Z,2.25
2018-04-10T21:47:10.978Z,2.42
2018-04-10T21:49:38.432Z,1.23
2018-04-10T21:52:06.075Z,1.75
2018-04-10T21:54:34.328Z,2.95
2018-04-10T21:57:01.807Z,2.22
2018-04-10T21:59:30.027Z,5.50
2018-04-10T22:01:57.616Z,1.55
2018-04-10T22:04:25.079Z,1.62
2018-04-10T22:06:52.563Z,1.77
2018-04-10T22:09:20.812Z,3.20
2018-04-10T22:11:48.283Z,2.20
2018-04-10T22:14:15.777Z,2.62
2018-04-10T22:16:43.330Z,2.40
2018-04-10T22:19:10.799Z,3.15
2018-04-10T22:21:38.429Z,5.15
2018-04-10T22:24:05.903Z,2.97
2018-04-10T22:26:33.441Z,2.62
2018-04-10T22:29:00.926Z,2.83
2018-04-10T22:34:02.258Z,3.75
2018-04-10T22:36:29.750Z,5.35
2018-04-10T22:38:57.218Z,3.42
2018-04-10T22:41:24.714Z,3.83
2018-04-10T22:43:52.972Z,2.53
2018-04-10T22:46:21.251Z,5.07
2018-04-10T22:48:49.559Z,6.03
2018-04-10T22:51:17.045Z,3.53
2018-04-10T22:53:44.535Z,4.00
2018-04-10T22:56:12.000Z,3.50
2018-04-10T22:58:40.234Z,4.78
2018-04-10T23:01:07.785Z,6.65
2018-04-10T23:03:35.252Z,3.90
2018-04-10T23:06:02.719Z,6.62
2018-04-10T23:08:30.180Z,5.57
2018-04-10T23:10:57.667Z,6.87
2018-04-10T23:13:25.919Z,3.83
2018-04-10T23:15:53.398Z,10.20
2018-04-10T23:18:21.648Z,7.55
2018-04-10T23:20:49.122Z,7.80
2018-04-10T23:23:16.603Z,6.90
2018-04-10T23:25:44.847Z,5.45
2018-04-10T23:28:12.303Z,5.10
2018-04-10T23:30:40.552Z,5.25
2018-04-10T23:33:08.035Z,4.82
2018-04-10T23:35:35.510Z,4.50
2018-04-10T23:38:03.046Z,6.15
2018-04-10T23:40:30.493Z,6.10
2018-04-10T23:42:57.990Z,5.15
2018-04-10T23:45:25.456Z,5.25
2018-04-10T23:47:54.222Z,7.65
2018-04-10T23:50:21.671Z,6.05
2018-04-10T23:52:49.348Z,10.35
2018-04-10T23:55:16.800Z,6.95
2018-04-10T23:57:45.059Z,8.93
